PWSweather.com
Personal Weather Stations
Station Observations
UISISLE1
Newport, Isle ofWight, ISLE OF WIGHT PO30 2JX

NewportIsle ofWight, ISLE OF WIGHT PO30 2JX

Lat: 50.72, Lon: -1.27

Elevation: 45

Station Type: Davis Vantage Pro Plus

http://www.isleofwightweather.co.uk

High Low Average
Temperature 65.4°F18.6°F 45.6°F7.6°F 56.3°F13.5°F
Dew Point 54.6°F12.6°F 42.1°F5.6°F 50.9°F10.5°F
Winds 5.8 mph -9.3 mph - Calm Calm 0.9 mph 1.4 mph
Wind Gusts 12.7 mph20.4 mph -- 2.1 mph3.4 mph
Humidity 95% 65% 83%
Pressure 29.86 in1011.20 in 29.77 in1008.10 in -
Precipitation 0.38 in9.70 in - -
Hour Temp Dew Point Humidity Winds Wind Gusts Pressure Precip Precip Rate Daily Precip Total
12:00 AM 45.7°F7.6°C 42.1°F5.6°C 87% Calm Calm -- 29.77 in1008.1 mb - 0.00 in0.0 mm 0.00 in0.0 mm
12:15 AM 45.6°F7.6°C 42.3°F5.7°C 88% Calm Calm -- 29.77 in1008.1 mb - 0.00 in0.0 mm 0.00 in0.0 mm
12:30 AM 45.6°F7.6°C 42.3°F5.7°C 88% Calm Calm -- 29.77 in1008.1 mb - 0.00 in0.0 mm 0.00 in0.0 mm
12:45 AM 45.6°F7.6°C 42.5°F5.8°C 89% Calm Calm -- 29.77 in1008.1 mb - 0.00 in0.0 mm 0.00 in0.0 mm
01:00 AM 45.7°F7.6°C 42.6°F5.9°C 89% Calm Calm -- 29.77 in1008.1 mb - 0.00 in0.0 mm 0.00 in0.0 mm
01:15 AM 45.9°F7.7°C 43.1°F6.2°C 90% Calm Calm -- 29.77 in1008.1 mb - 0.00 in0.0 mm 0.00 in0.0 mm
01:30 AM 46.0°F7.8°C 43.2°F6.2°C 90% Calm Calm -- 29.77 in1008.1 mb - 0.00 in0.0 mm 0.00 in0.0 mm
01:45 AM 46.3°F7.9°C 43.5°F6.4°C 90% Calm Calm -- 29.77 in1008.1 mb - 0.00 in0.0 mm 0.00 in0.0 mm
02:00 AM 46.5°F8.1°C 44.1°F6.7°C 91% Calm Calm -- 29.77 in1008.1 mb - 0.00 in0.0 mm 0.00 in0.0 mm
02:15 AM 46.9°F8.3°C 44.4°F6.9°C 91% Calm Calm -- 29.77 in1008.1 mb - 0.00 in0.0 mm 0.00 in0.0 mm
02:30 AM 47.3°F8.5°C 44.8°F7.1°C 91% Calm Calm -- 29.77 in1008.1 mb - 0.00 in0.0 mm 0.00 in0.0 mm
02:45 AM 47.4°F8.6°C 44.9°F7.2°C 91% Calm Calm -- 29.77 in1008.1 mb - 0.00 in0.0 mm 0.00 in0.0 mm
03:00 AM 47.5°F8.6°C 45.0°F7.2°C 91% Calm Calm -- 29.78 in1008.5 mb - 0.00 in0.0 mm 0.00 in0.0 mm
03:15 AM 47.7°F8.7°C 45.5°F7.5°C 92% Calm Calm -- 29.78 in1008.5 mb - 0.00 in0.0 mm 0.00 in0.0 mm
03:30 AM 47.9°F8.8°C 45.7°F7.6°C 92% Calm Calm -- 29.78 in1008.5 mb - 0.00 in0.0 mm 0.00 in0.0 mm
03:45 AM 48.1°F8.9°C 45.9°F7.7°C 92% Calm Calm -- 29.77 in1008.1 mb - 0.00 in0.0 mm 0.00 in0.0 mm
04:00 AM 48.4°F9.1°C 46.2°F7.9°C 92% Calm Calm -- 29.78 in1008.5 mb - 0.00 in0.0 mm 0.00 in0.0 mm
04:15 AM 48.5°F9.2°C 46.3°F7.9°C 92% Calm Calm -- 29.78 in1008.5 mb - 0.00 in0.0 mm 0.00 in0.0 mm
04:30 AM 48.6°F9.2°C 46.7°F8.2°C 93% Calm Calm -- 29.78 in1008.5 mb - 0.00 in0.0 mm 0.00 in0.0 mm
04:45 AM 48.9°F9.4°C 46.9°F8.3°C 93% Calm Calm -- 29.78 in1008.5 mb - 0.00 in0.0 mm 0.00 in0.0 mm
05:00 AM 49.0°F9.4°C 47.1°F8.4°C 93% Calm Calm -- 29.78 in1008.5 mb - 0.00 in0.0 mm 0.00 in0.0 mm
05:15 AM 49.2°F9.6°C 47.3°F8.5°C 93% Calm Calm -- 29.78 in1008.5 mb - 0.00 in0.0 mm 0.00 in0.0 mm
05:30 AM 49.4°F9.7°C 47.5°F8.6°C 93% Calm Calm -- 29.78 in1008.5 mb - 0.00 in0.0 mm 0.00 in0.0 mm
05:45 AM 49.7°F9.8°C 47.8°F8.8°C 93% Calm Calm -- 29.79 in1008.8 mb - 0.00 in0.0 mm 0.00 in0.0 mm
06:00 AM 50.2°F10.1°C 48.3°F9.1°C 93% Calm Calm -- 29.79 in1008.8 mb - 0.00 in0.0 mm 0.00 in0.0 mm
06:15 AM 50.6°F10.3°C 48.9°F9.4°C 94% Calm Calm -- 29.79 in1008.8 mb - 0.00 in0.0 mm 0.00 in0.0 mm
06:30 AM 51.0°F10.6°C 49.3°F9.6°C 94% Calm Calm -- 29.79 in1008.8 mb - 0.00 in0.0 mm 0.00 in0.0 mm
06:45 AM 51.8°F11.0°C 50.1°F10.1°C 94% Calm Calm -- 29.79 in1008.8 mb - 0.00 in0.0 mm 0.00 in0.0 mm
07:00 AM 52.5°F11.4°C 50.8°F10.4°C 94% Calm Calm -- 29.79 in1008.8 mb - 0.00 in0.0 mm 0.00 in0.0 mm
07:15 AM 53.0°F11.7°C 51.6°F10.9°C 95% Calm Calm -- 29.80 in1009.1 mb - 0.00 in0.0 mm 0.00 in0.0 mm
07:30 AM 53.7°F12.1°C 52.0°F11.1°C 94% Calm Calm -- 29.80 in1009.1 mb - 0.00 in0.0 mm 0.00 in0.0 mm
07:45 AM 53.9°F12.2°C 52.2°F11.2°C 94% 1.1 mph N1.8 kmh N 2.3 mph3.7 kmh 29.80 in1009.1 mb - 0.00 in0.0 mm 0.00 in0.0 mm
08:00 AM 54.4°F12.4°C 52.7°F11.5°C 94% Calm Calm -- 29.80 in1009.1 mb - 0.00 in0.0 mm 0.00 in0.0 mm
08:15 AM 55.1°F12.8°C 53.1°F11.7°C 93% Calm Calm 1.1 mph1.8 kmh 29.80 in1009.1 mb - 0.00 in0.0 mm 0.00 in0.0 mm
08:30 AM 55.9°F13.3°C 53.6°F12.0°C 92% 1.1 mph N1.8 kmh N 4.6 mph7.4 kmh 29.80 in1009.1 mb - 0.00 in0.0 mm 0.00 in0.0 mm
08:45 AM 56.7°F13.7°C 53.5°F11.9°C 89% 2.3 mph NE3.7 kmh NE 3.5 mph5.6 kmh 29.81 in1009.5 mb - 0.00 in0.0 mm 0.00 in0.0 mm
09:00 AM 57.8°F14.3°C 53.6°F12.0°C 86% 2.3 mph NNE3.7 kmh NNE 4.6 mph7.4 kmh 29.81 in1009.5 mb - 0.00 in0.0 mm 0.00 in0.0 mm
09:15 AM 58.9°F14.9°C 53.7°F12.1°C 83% 1.1 mph N1.8 kmh N 4.6 mph7.4 kmh 29.81 in1009.5 mb - 0.00 in0.0 mm 0.00 in0.0 mm
09:30 AM 59.6°F15.3°C 53.5°F11.9°C 80% 2.3 mph NE3.7 kmh NE 5.8 mph9.3 kmh 29.82 in1009.8 mb - 0.00 in0.0 mm 0.00 in0.0 mm
09:45 AM 60.2°F15.7°C 53.7°F12.1°C 79% 2.3 mph NE3.7 kmh NE 3.5 mph5.6 kmh 29.81 in1009.5 mb - 0.00 in0.0 mm 0.00 in0.0 mm
10:00 AM 60.8°F16.0°C 53.5°F11.9°C 77% 1.1 mph E1.8 kmh E 3.5 mph5.6 kmh 29.81 in1009.5 mb - 0.00 in0.0 mm 0.00 in0.0 mm
10:15 AM 61.6°F16.4°C 54.0°F12.2°C 76% 4.6 mph NE7.4 kmh NE 4.6 mph7.4 kmh 29.81 in1009.5 mb - 0.00 in0.0 mm 0.00 in0.0 mm
10:30 AM 62.1°F16.7°C 53.0°F11.7°C 72% Calm Calm 4.6 mph7.4 kmh 29.81 in1009.5 mb - 0.00 in0.0 mm 0.00 in0.0 mm
10:45 AM 62.7°F17.1°C 52.4°F11.3°C 69% 1.1 mph N1.8 kmh N 4.6 mph7.4 kmh 29.81 in1009.5 mb - 0.00 in0.0 mm 0.00 in0.0 mm
11:00 AM 63.7°F17.6°C 53.7°F12.1°C 70% 2.3 mph NE3.7 kmh NE 8.1 mph13.0 kmh 29.81 in1009.5 mb - 0.00 in0.0 mm 0.00 in0.0 mm
11:15 AM 64.3°F17.9°C 53.1°F11.7°C 67% Calm Calm 3.5 mph5.6 kmh 29.81 in1009.5 mb - 0.00 in0.0 mm 0.00 in0.0 mm
11:30 AM 64.4°F18.0°C 52.4°F11.3°C 65% 2.3 mph N3.7 kmh N 4.6 mph7.4 kmh 29.82 in1009.8 mb - 0.00 in0.0 mm 0.00 in0.0 mm
11:45 AM 64.2°F17.9°C 52.2°F11.2°C 65% 1.1 mph NW1.8 kmh NW 2.3 mph3.7 kmh 29.82 in1009.8 mb - 0.00 in0.0 mm 0.00 in0.0 mm
12:00 PM 64.3°F17.9°C 52.3°F11.3°C 65% 2.3 mph N3.7 kmh N 2.3 mph3.7 kmh 29.82 in1009.8 mb - 0.00 in0.0 mm 0.00 in0.0 mm
12:15 PM 64.3°F17.9°C 52.3°F11.3°C 65% 3.5 mph N5.6 kmh N 4.6 mph7.4 kmh 29.82 in1009.8 mb - 0.00 in0.0 mm 0.00 in0.0 mm
12:30 PM 64.4°F18.0°C 52.4°F11.3°C 65% 2.3 mph NE3.7 kmh NE 2.3 mph3.7 kmh 29.82 in1009.8 mb - 0.00 in0.0 mm 0.00 in0.0 mm
12:45 PM 65.0°F18.3°C 53.4°F11.9°C 66% Calm Calm 1.1 mph1.8 kmh 29.82 in1009.8 mb - 0.00 in0.0 mm 0.00 in0.0 mm
01:00 PM 65.4°F18.6°C 54.6°F12.6°C 68% 4.6 mph SE7.4 kmh SE 12.7 mph20.4 kmh 29.82 in1009.8 mb - 0.00 in0.0 mm 0.00 in0.0 mm
01:15 PM 65.1°F18.4°C 54.3°F12.4°C 68% Calm Calm 2.3 mph3.7 kmh 29.82 in1009.8 mb - 0.00 in0.0 mm 0.00 in0.0 mm
01:30 PM 64.8°F18.2°C 54.0°F12.2°C 68% 2.3 mph SE3.7 kmh SE 4.6 mph7.4 kmh 29.82 in1009.8 mb - 0.00 in0.0 mm 0.00 in0.0 mm
01:45 PM 64.5°F18.1°C 53.7°F12.1°C 68% Calm Calm -- 29.82 in1009.8 mb - 0.00 in0.0 mm 0.00 in0.0 mm
02:00 PM 64.5°F18.1°C 53.7°F12.1°C 68% 1.1 mph SSW1.8 kmh SSW 3.5 mph5.6 kmh 29.82 in1009.8 mb - 0.00 in0.0 mm 0.00 in0.0 mm
02:15 PM 64.0°F17.8°C 53.2°F11.8°C 68% 1.1 mph SW1.8 kmh SW 3.5 mph5.6 kmh 29.82 in1009.8 mb - 0.00 in0.0 mm 0.00 in0.0 mm
02:30 PM 64.0°F17.8°C 54.4°F12.4°C 71% Calm Calm 3.5 mph5.6 kmh 29.82 in1009.8 mb - 0.00 in0.0 mm 0.00 in0.0 mm
02:45 PM 63.9°F17.7°C 53.9°F12.2°C 70% 1.1 mph SW1.8 kmh SW 1.1 mph1.8 kmh 29.82 in1009.8 mb - 0.00 in0.0 mm 0.00 in0.0 mm
03:00 PM 64.0°F17.8°C 54.0°F12.2°C 70% 1.1 mph S1.8 kmh S 3.5 mph5.6 kmh 29.82 in1009.8 mb - 0.00 in0.0 mm 0.00 in0.0 mm
03:15 PM 63.9°F17.7°C 53.9°F12.2°C 70% 3.5 mph SW5.6 kmh SW 3.5 mph5.6 kmh 29.82 in1009.8 mb - 0.00 in0.0 mm 0.00 in0.0 mm
03:30 PM 63.5°F17.5°C 53.6°F12.0°C 70% 3.5 mph SW5.6 kmh SW 8.1 mph13.0 kmh 29.82 in1009.8 mb - 0.00 in0.0 mm 0.00 in0.0 mm
03:45 PM 63.1°F17.3°C 53.5°F11.9°C 71% 3.5 mph SW5.6 kmh SW 11.5 mph18.5 kmh 29.82 in1009.8 mb - 0.00 in0.0 mm 0.00 in0.0 mm
04:00 PM 62.7°F17.1°C 53.5°F11.9°C 72% 5.8 mph WSW9.3 kmh WSW 8.1 mph13.0 kmh 29.82 in1009.8 mb - 0.00 in0.0 mm 0.00 in0.0 mm
04:15 PM 62.7°F17.1°C 53.6°F12.0°C 72% 4.6 mph WSW7.4 kmh WSW 6.9 mph11.1 kmh 29.82 in1009.8 mb - 0.00 in0.0 mm 0.00 in0.0 mm
04:30 PM 63.0°F17.2°C 53.4°F11.9°C 71% 3.5 mph WSW5.6 kmh WSW 9.2 mph14.8 kmh 29.82 in1009.8 mb - 0.00 in0.0 mm 0.00 in0.0 mm
04:45 PM 63.2°F17.3°C 54.4°F12.4°C 73% 3.5 mph NW5.6 kmh NW 9.2 mph14.8 kmh 29.82 in1009.8 mb - 0.00 in0.0 mm 0.00 in0.0 mm
05:00 PM 62.6°F17.0°C 53.8°F12.1°C 73% 3.5 mph NW5.6 kmh NW 6.9 mph11.1 kmh 29.82 in1009.8 mb - 0.00 in0.0 mm 0.00 in0.0 mm
05:15 PM 61.4°F16.3°C 53.8°F12.1°C 76% Calm Calm 2.3 mph3.7 kmh 29.82 in1009.8 mb - 0.00 in0.0 mm 0.00 in0.0 mm
05:30 PM 61.4°F16.3°C 54.1°F12.3°C 77% 3.5 mph WNW5.6 kmh WNW 4.6 mph7.4 kmh 29.82 in1009.8 mb - 0.00 in0.0 mm 0.00 in0.0 mm
05:45 PM 60.9°F16.1°C 54.0°F12.2°C 78% Calm Calm -- 29.82 in1009.8 mb - 0.00 in0.0 mm 0.00 in0.0 mm
06:00 PM 60.3°F15.7°C 53.4°F11.9°C 78% Calm Calm -- 29.82 in1009.8 mb - 0.00 in0.0 mm 0.00 in0.0 mm
06:15 PM 59.8°F15.4°C 53.6°F12.0°C 80% 1.1 mph WNW1.8 kmh WNW 3.5 mph5.6 kmh 29.83 in1010.2 mb - 0.00 in0.0 mm 0.00 in0.0 mm
06:30 PM 59.4°F15.2°C 53.2°F11.8°C 80% Calm Calm -- 29.83 in1010.2 mb - 0.00 in0.0 mm 0.00 in0.0 mm
06:45 PM 59.1°F15.1°C 53.3°F11.8°C 81% Calm Calm -- 29.84 in1010.5 mb - 0.00 in0.0 mm 0.00 in0.0 mm
07:00 PM 58.7°F14.8°C 53.2°F11.8°C 82% 1.1 mph N1.8 kmh N 3.5 mph5.6 kmh 29.84 in1010.5 mb - 0.00 in0.0 mm 0.00 in0.0 mm
07:15 PM 58.1°F14.5°C 53.3°F11.8°C 84% 3.5 mph NNW5.6 kmh NNW 4.6 mph7.4 kmh 29.85 in1010.8 mb - 0.00 in0.0 mm 0.00 in0.0 mm
07:30 PM 57.8°F14.3°C 53.3°F11.8°C 85% Calm Calm -- 29.85 in1010.8 mb - 0.00 in0.0 mm 0.00 in0.0 mm
07:45 PM 57.7°F14.3°C 53.5°F11.9°C 86% Calm Calm -- 29.85 in1010.8 mb - 0.00 in0.0 mm 0.00 in0.0 mm
08:00 PM 57.5°F14.2°C 53.7°F12.1°C 87% Calm Calm -- 29.85 in1010.8 mb - 0.02 in0.5 mm 0.02 in0.5 mm
08:15 PM 57.3°F14.1°C 53.8°F12.1°C 88% Calm Calm -- 29.85 in1010.8 mb - 0.04 in1.0 mm 0.04 in1.0 mm
08:30 PM 56.8°F13.8°C 53.3°F11.8°C 88% 1.1 mph N1.8 kmh N 1.1 mph1.8 kmh 29.86 in1011.2 mb - 0.06 in1.5 mm 0.06 in1.5 mm
08:45 PM 56.5°F13.6°C 53.0°F11.7°C 88% Calm Calm -- 29.86 in1011.2 mb - 0.08 in2.0 mm 0.08 in2.0 mm
09:00 PM 56.2°F13.4°C 53.0°F11.7°C 89% Calm Calm -- 29.86 in1011.2 mb - 0.06 in1.5 mm 0.09 in2.3 mm
09:15 PM 56.1°F13.4°C 53.2°F11.8°C 90% Calm Calm -- 29.86 in1011.2 mb - 0.05 in1.3 mm 0.09 in2.3 mm
09:30 PM 55.9°F13.3°C 53.0°F11.7°C 90% Calm Calm -- 29.86 in1011.2 mb - 0.02 in0.5 mm 0.09 in2.3 mm
09:45 PM 55.6°F13.1°C 52.7°F11.5°C 90% Calm Calm -- 29.86 in1011.2 mb - 0.02 in0.5 mm 0.09 in2.3 mm
10:00 PM 55.3°F12.9°C 52.7°F11.5°C 91% Calm Calm -- 29.86 in1011.2 mb - 0.00 in0.0 mm 0.09 in2.3 mm
10:15 PM 55.1°F12.8°C 52.5°F11.4°C 91% 1.1 mph NW1.8 kmh NW 2.3 mph3.7 kmh 29.86 in1011.2 mb - 0.00 in0.0 mm 0.09 in2.3 mm
10:30 PM 55.0°F12.8°C 52.4°F11.3°C 91% Calm Calm 1.1 mph1.8 kmh 29.86 in1011.2 mb - 0.00 in0.0 mm 0.09 in2.3 mm
10:45 PM 54.8°F12.7°C 52.2°F11.2°C 91% Calm Calm -- 29.86 in1011.2 mb - 0.00 in0.0 mm 0.09 in2.3 mm
11:00 PM 54.5°F12.5°C 51.9°F11.1°C 91% Calm Calm -- 29.86 in1011.2 mb - 0.00 in0.0 mm 0.35 in8.9 mm
11:15 PM 54.3°F12.4°C 52.0°F11.1°C 92% Calm Calm -- 29.86 in1011.2 mb - 0.01 in0.3 mm 0.01 in0.3 mm
11:30 PM 54.2°F12.3°C 51.9°F11.1°C 92% Calm Calm -- 29.86 in1011.2 mb - 0.01 in0.3 mm 0.01 in0.3 mm
11:45 PM 54.1°F12.3°C 51.8°F11.0°C 92% Calm Calm -- 29.86 in1011.2 mb - 0.01 in0.3 mm 0.01 in0.3 mm